sensor_id;sensor_type;location;lat;lon;timestamp;P1;durP1;ratioP1;P2;durP2;ratioP2
17253;SDS011;32542;52.832;13.816;2023-02-19T00:01:05;31.60;;;22.63;;
17253;SDS011;32542;52.832;13.816;2023-02-19T00:04:12;32.22;;;23.15;;
17253;SDS011;32542;52.832;13.816;2023-02-19T00:07:16;31.88;;;22.80;;
17253;SDS011;32542;52.832;13.816;2023-02-19T00:10:19;31.67;;;22.70;;
17253;SDS011;32542;52.832;13.816;2023-02-19T00:13:21;30.80;;;21.75;;
17253;SDS011;32542;52.832;13.816;2023-02-19T00:16:25;32.22;;;23.50;;
17253;SDS011;32542;52.832;13.816;2023-02-19T00:19:30;31.75;;;22.17;;
17253;SDS011;32542;52.832;13.816;2023-02-19T00:22:33;30.77;;;22.42;;
17253;SDS011;32542;52.832;13.816;2023-02-19T00:25:36;30.05;;;20.98;;
17253;SDS011;32542;52.832;13.816;2023-02-19T00:28:39;29.20;;;20.55;;
17253;SDS011;32542;52.832;13.816;2023-02-19T00:31:43;29.38;;;22.15;;
17253;SDS011;32542;52.832;13.816;2023-02-19T00:34:48;31.55;;;21.52;;
17253;SDS011;32542;52.832;13.816;2023-02-19T00:37:51;29.38;;;21.40;;
17253;SDS011;32542;52.832;13.816;2023-02-19T00:40:54;27.65;;;21.08;;
17253;SDS011;32542;52.832;13.816;2023-02-19T00:43:57;30.15;;;22.45;;
17253;SDS011;32542;52.832;13.816;2023-02-19T00:47:02;32.35;;;22.13;;
17253;SDS011;32542;52.832;13.816;2023-02-19T00:50:06;30.63;;;21.88;;
17253;SDS011;32542;52.832;13.816;2023-02-19T00:53:09;31.13;;;22.95;;
17253;SDS011;32542;52.832;13.816;2023-02-19T00:56:12;29.92;;;21.77;;
17253;SDS011;32542;52.832;13.816;2023-02-19T00:59:16;33.78;;;22.98;;
17253;SDS011;32542;52.832;13.816;2023-02-19T01:02:19;33.60;;;23.23;;
17253;SDS011;32542;52.832;13.816;2023-02-19T01:05:25;32.78;;;21.33;;
17253;SDS011;32542;52.832;13.816;2023-02-19T01:08:28;32.40;;;22.90;;
17253;SDS011;32542;52.832;13.816;2023-02-19T01:11:34;27.15;;;20.55;;
17253;SDS011;32542;52.832;13.816;2023-02-19T01:14:37;25.40;;;19.95;;
17253;SDS011;32542;52.832;13.816;2023-02-19T01:17:40;28.80;;;20.75;;
17253;SDS011;32542;52.832;13.816;2023-02-19T01:20:45;28.58;;;20.48;;
17253;SDS011;32542;52.832;13.816;2023-02-19T01:23:48;28.05;;;20.80;;
17253;SDS011;32542;52.832;13.816;2023-02-19T01:26:52;29.63;;;21.60;;
17253;SDS011;32542;52.832;13.816;2023-02-19T01:29:55;27.58;;;19.83;;
17253;SDS011;32542;52.832;13.816;2023-02-19T01:32:58;27.13;;;20.58;;
17253;SDS011;32542;52.832;13.816;2023-02-19T01:36:03;26.33;;;20.13;;
17253;SDS011;32542;52.832;13.816;2023-02-19T01:39:09;27.55;;;20.90;;
17253;SDS011;32542;52.832;13.816;2023-02-19T01:42:12;26.95;;;20.05;;
17253;SDS011;32542;52.832;13.816;2023-02-19T01:45:22;30.85;;;20.27;;
17253;SDS011;32542;52.832;13.816;2023-02-19T01:48:28;27.90;;;20.52;;
17253;SDS011;32542;52.832;13.816;2023-02-19T01:51:37;27.05;;;19.60;;
17253;SDS011;32542;52.832;13.816;2023-02-19T01:54:43;28.30;;;20.10;;
17253;SDS011;32542;52.832;13.816;2023-02-19T01:57:49;26.85;;;19.30;;
17253;SDS011;32542;52.832;13.816;2023-02-19T02:00:56;26.45;;;19.08;;
17253;SDS011;32542;52.832;13.816;2023-02-19T02:03:59;28.42;;;19.65;;
17253;SDS011;32542;52.832;13.816;2023-02-19T02:07:04;25.20;;;19.48;;
17253;SDS011;32542;52.832;13.816;2023-02-19T02:10:28;24.15;;;19.23;;
17253;SDS011;32542;52.832;13.816;2023-02-19T02:13:31;27.60;;;19.77;;
17253;SDS011;32542;52.832;13.816;2023-02-19T02:16:37;25.90;;;18.88;;
17253;SDS011;32542;52.832;13.816;2023-02-19T02:19:55;28.70;;;18.70;;
17253;SDS011;32542;52.832;13.816;2023-02-19T02:23:12;23.88;;;18.35;;
17253;SDS011;32542;52.832;13.816;2023-02-19T02:26:24;27.23;;;19.92;;
17253;SDS011;32542;52.832;13.816;2023-02-19T02:29:51;23.60;;;18.17;;
17253;SDS011;32542;52.832;13.816;2023-02-19T02:33:11;25.27;;;18.40;;
17253;SDS011;32542;52.832;13.816;2023-02-19T02:36:22;24.48;;;18.67;;
17253;SDS011;32542;52.832;13.816;2023-02-19T02:39:29;25.40;;;18.38;;
17253;SDS011;32542;52.832;13.816;2023-02-19T02:42:34;23.77;;;18.00;;
17253;SDS011;32542;52.832;13.816;2023-02-19T02:45:46;23.23;;;17.48;;
17253;SDS011;32542;52.832;13.816;2023-02-19T02:48:56;23.63;;;17.55;;
17253;SDS011;32542;52.832;13.816;2023-02-19T02:52:02;25.67;;;18.55;;
17253;SDS011;32542;52.832;13.816;2023-02-19T02:55:25;23.75;;;17.63;;
17253;SDS011;32542;52.832;13.816;2023-02-19T02:58:32;23.10;;;17.23;;
17253;SDS011;32542;52.832;13.816;2023-02-19T03:01:40;22.95;;;17.08;;
17253;SDS011;32542;52.832;13.816;2023-02-19T03:05:04;24.27;;;17.55;;
17253;SDS011;32542;52.832;13.816;2023-02-19T03:08:28;22.83;;;16.73;;
17253;SDS011;32542;52.832;13.816;2023-02-19T03:11:33;22.25;;;16.17;;
17253;SDS011;32542;52.832;13.816;2023-02-19T03:14:58;22.10;;;16.33;;
17253;SDS011;32542;52.832;13.816;2023-02-19T03:18:27;21.92;;;16.67;;
17253;SDS011;32542;52.832;13.816;2023-02-19T03:21:54;22.15;;;16.48;;
17253;SDS011;32542;52.832;13.816;2023-02-19T03:25:03;21.65;;;16.23;;
17253;SDS011;32542;52.832;13.816;2023-02-19T03:28:27;21.58;;;16.33;;
17253;SDS011;32542;52.832;13.816;2023-02-19T03:31:47;21.83;;;15.68;;
17253;SDS011;32542;52.832;13.816;2023-02-19T03:34:56;21.73;;;16.58;;
17253;SDS011;32542;52.832;13.816;2023-02-19T03:38:05;21.33;;;15.95;;
17253;SDS011;32542;52.832;13.816;2023-02-19T03:41:15;21.08;;;15.55;;
17253;SDS011;32542;52.832;13.816;2023-02-19T03:44:26;21.70;;;16.40;;
17253;SDS011;32542;52.832;13.816;2023-02-19T03:47:41;21.80;;;15.85;;
17253;SDS011;32542;52.832;13.816;2023-02-19T03:50:57;21.63;;;15.55;;
17253;SDS011;32542;52.832;13.816;2023-02-19T03:54:11;19.35;;;15.45;;
17253;SDS011;32542;52.832;13.816;2023-02-19T03:57:23;21.42;;;16.05;;
17253;SDS011;32542;52.832;13.816;2023-02-19T04:00:34;21.05;;;15.35;;
17253;SDS011;32542;52.832;13.816;2023-02-19T04:03:42;21.02;;;16.05;;
17253;SDS011;32542;52.832;13.816;2023-02-19T04:06:52;19.25;;;14.43;;
17253;SDS011;32542;52.832;13.816;2023-02-19T04:10:00;21.15;;;15.60;;
17253;SDS011;32542;52.832;13.816;2023-02-19T04:13:06;20.88;;;14.93;;
17253;SDS011;32542;52.832;13.816;2023-02-19T04:16:14;21.17;;;15.77;;
17253;SDS011;32542;52.832;13.816;2023-02-19T04:19:20;19.50;;;14.13;;
17253;SDS011;32542;52.832;13.816;2023-02-19T04:22:29;20.50;;;14.95;;
17253;SDS011;32542;52.832;13.816;2023-02-19T04:25:32;19.98;;;14.93;;
17253;SDS011;32542;52.832;13.816;2023-02-19T04:28:37;19.73;;;14.73;;
17253;SDS011;32542;52.832;13.816;2023-02-19T04:31:41;19.92;;;14.80;;
17253;SDS011;32542;52.832;13.816;2023-02-19T04:34:43;19.65;;;14.82;;
17253;SDS011;32542;52.832;13.816;2023-02-19T04:37:48;17.55;;;13.70;;
17253;SDS011;32542;52.832;13.816;2023-02-19T04:40:51;19.55;;;14.73;;
17253;SDS011;32542;52.832;13.816;2023-02-19T04:43:54;18.73;;;13.95;;
17253;SDS011;32542;52.832;13.816;2023-02-19T04:46:56;17.58;;;13.68;;
17253;SDS011;32542;52.832;13.816;2023-02-19T04:49:59;18.92;;;14.07;;
17253;SDS011;32542;52.832;13.816;2023-02-19T04:53:04;17.42;;;14.10;;
17253;SDS011;32542;52.832;13.816;2023-02-19T04:56:07;18.30;;;13.85;;
17253;SDS011;32542;52.832;13.816;2023-02-19T04:59:11;18.42;;;13.90;;
17253;SDS011;32542;52.832;13.816;2023-02-19T05:02:14;17.73;;;13.70;;
17253;SDS011;32542;52.832;13.816;2023-02-19T05:05:17;17.92;;;14.02;;
17253;SDS011;32542;52.832;13.816;2023-02-19T05:08:21;20.52;;;13.63;;
17253;SDS011;32542;52.832;13.816;2023-02-19T05:11:24;17.65;;;13.10;;
17253;SDS011;32542;52.832;13.816;2023-02-19T05:14:27;16.83;;;12.75;;
17253;SDS011;32542;52.832;13.816;2023-02-19T05:17:31;18.05;;;13.73;;
17253;SDS011;32542;52.832;13.816;2023-02-19T05:20:35;18.35;;;13.45;;
17253;SDS011;32542;52.832;13.816;2023-02-19T05:23:39;17.33;;;13.32;;
17253;SDS011;32542;52.832;13.816;2023-02-19T05:26:42;16.05;;;12.30;;
17253;SDS011;32542;52.832;13.816;2023-02-19T05:29:46;16.70;;;12.20;;
17253;SDS011;32542;52.832;13.816;2023-02-19T05:32:48;16.98;;;12.23;;
17253;SDS011;32542;52.832;13.816;2023-02-19T05:35:52;17.65;;;13.02;;
17253;SDS011;32542;52.832;13.816;2023-02-19T05:38:58;16.30;;;12.73;;
17253;SDS011;32542;52.832;13.816;2023-02-19T05:42:01;16.58;;;12.57;;
17253;SDS011;32542;52.832;13.816;2023-02-19T05:45:04;17.05;;;13.00;;
17253;SDS011;32542;52.832;13.816;2023-02-19T05:48:08;15.82;;;12.40;;
17253;SDS011;32542;52.832;13.816;2023-02-19T05:51:14;16.48;;;12.48;;
17253;SDS011;32542;52.832;13.816;2023-02-19T05:54:19;16.88;;;12.43;;
17253;SDS011;32542;52.832;13.816;2023-02-19T05:57:22;16.90;;;12.38;;
17253;SDS011;32542;52.832;13.816;2023-02-19T06:00:25;15.88;;;11.88;;
17253;SDS011;32542;52.832;13.816;2023-02-19T06:03:28;15.32;;;11.45;;
17253;SDS011;32542;52.832;13.816;2023-02-19T06:06:31;16.33;;;11.88;;
17253;SDS011;32542;52.832;13.816;2023-02-19T06:09:35;16.15;;;12.00;;
17253;SDS011;32542;52.832;13.816;2023-02-19T06:12:38;15.60;;;11.93;;
17253;SDS011;32542;52.832;13.816;2023-02-19T06:15:41;13.68;;;11.00;;
17253;SDS011;32542;52.832;13.816;2023-02-19T06:18:44;15.57;;;11.20;;
17253;SDS011;32542;52.832;13.816;2023-02-19T06:21:48;15.25;;;12.23;;
17253;SDS011;32542;52.832;13.816;2023-02-19T06:24:53;16.08;;;12.20;;
17253;SDS011;32542;52.832;13.816;2023-02-19T06:27:56;15.40;;;11.38;;
17253;SDS011;32542;52.832;13.816;2023-02-19T06:30:59;14.13;;;10.95;;
17253;SDS011;32542;52.832;13.816;2023-02-19T06:34:02;14.50;;;11.18;;
17253;SDS011;32542;52.832;13.816;2023-02-19T06:37:06;13.32;;;10.70;;
17253;SDS011;32542;52.832;13.816;2023-02-19T06:40:10;14.48;;;11.13;;
17253;SDS011;32542;52.832;13.816;2023-02-19T06:43:13;14.75;;;11.05;;
17253;SDS011;32542;52.832;13.816;2023-02-19T06:46:16;13.18;;;10.63;;
17253;SDS011;32542;52.832;13.816;2023-02-19T06:49:19;14.80;;;11.13;;
17253;SDS011;32542;52.832;13.816;2023-02-19T06:52:23;13.05;;;10.40;;
17253;SDS011;32542;52.832;13.816;2023-02-19T06:55:27;13.70;;;10.38;;
17253;SDS011;32542;52.832;13.816;2023-02-19T06:58:30;14.05;;;10.40;;
17253;SDS011;32542;52.832;13.816;2023-02-19T07:01:34;13.93;;;10.63;;
17253;SDS011;32542;52.832;13.816;2023-02-19T07:04:38;12.13;;;9.48;;
17253;SDS011;32542;52.832;13.816;2023-02-19T07:07:43;12.15;;;8.63;;
17253;SDS011;32542;52.832;13.816;2023-02-19T07:10:53;13.65;;;8.18;;
17253;SDS011;32542;52.832;13.816;2023-02-19T07:13:57;12.60;;;8.40;;
17253;SDS011;32542;52.832;13.816;2023-02-19T07:17:01;11.27;;;8.20;;
17253;SDS011;32542;52.832;13.816;2023-02-19T07:20:05;10.73;;;7.32;;
17253;SDS011;32542;52.832;13.816;2023-02-19T07:23:08;10.63;;;7.80;;
17253;SDS011;32542;52.832;13.816;2023-02-19T07:26:13;9.52;;;7.28;;
17253;SDS011;32542;52.832;13.816;2023-02-19T07:29:17;10.38;;;7.65;;
17253;SDS011;32542;52.832;13.816;2023-02-19T07:32:20;10.57;;;7.90;;
17253;SDS011;32542;52.832;13.816;2023-02-19T07:35:23;10.18;;;7.60;;
17253;SDS011;32542;52.832;13.816;2023-02-19T07:38:26;11.32;;;7.53;;
17253;SDS011;32542;52.832;13.816;2023-02-19T07:41:31;9.90;;;7.60;;
17253;SDS011;32542;52.832;13.816;2023-02-19T07:44:34;9.75;;;7.05;;
17253;SDS011;32542;52.832;13.816;2023-02-19T07:47:37;9.68;;;7.63;;
17253;SDS011;32542;52.832;13.816;2023-02-19T07:50:40;9.23;;;7.20;;
17253;SDS011;32542;52.832;13.816;2023-02-19T07:53:43;9.35;;;7.25;;
17253;SDS011;32542;52.832;13.816;2023-02-19T07:56:48;9.77;;;7.07;;
17253;SDS011;32542;52.832;13.816;2023-02-19T07:59:51;9.18;;;7.20;;
17253;SDS011;32542;52.832;13.816;2023-02-19T08:02:54;10.68;;;7.18;;
17253;SDS011;32542;52.832;13.816;2023-02-19T08:06:03;9.77;;;7.30;;
17253;SDS011;32542;52.832;13.816;2023-02-19T08:09:07;10.80;;;7.05;;
17253;SDS011;32542;52.832;13.816;2023-02-19T08:12:12;8.60;;;6.38;;
17253;SDS011;32542;52.832;13.816;2023-02-19T08:15:32;9.50;;;7.43;;
17253;SDS011;32542;52.832;13.816;2023-02-19T08:18:35;10.93;;;6.65;;
17253;SDS011;32542;52.832;13.816;2023-02-19T08:21:38;9.65;;;6.50;;
17253;SDS011;32542;52.832;13.816;2023-02-19T08:24:41;8.27;;;6.75;;
17253;SDS011;32542;52.832;13.816;2023-02-19T08:27:46;9.48;;;6.82;;
17253;SDS011;32542;52.832;13.816;2023-02-19T08:30:49;8.93;;;7.10;;
17253;SDS011;32542;52.832;13.816;2023-02-19T08:33:52;9.45;;;6.80;;
17253;SDS011;32542;52.832;13.816;2023-02-19T08:36:56;8.93;;;6.72;;
17253;SDS011;32542;52.832;13.816;2023-02-19T08:39:59;8.75;;;6.57;;
17253;SDS011;32542;52.832;13.816;2023-02-19T08:43:04;7.93;;;5.90;;
17253;SDS011;32542;52.832;13.816;2023-02-19T08:46:08;9.57;;;6.53;;
17253;SDS011;32542;52.832;13.816;2023-02-19T08:49:12;9.35;;;6.65;;
17253;SDS011;32542;52.832;13.816;2023-02-19T08:52:16;8.20;;;6.53;;
17253;SDS011;32542;52.832;13.816;2023-02-19T08:55:19;8.48;;;6.43;;
17253;SDS011;32542;52.832;13.816;2023-02-19T08:58:24;8.30;;;6.20;;
17253;SDS011;32542;52.832;13.816;2023-02-19T09:01:27;9.10;;;6.53;;
17253;SDS011;32542;52.832;13.816;2023-02-19T09:04:30;8.93;;;5.88;;
17253;SDS011;32542;52.832;13.816;2023-02-19T09:07:33;8.02;;;5.93;;
17253;SDS011;32542;52.832;13.816;2023-02-19T09:10:36;8.57;;;6.70;;
17253;SDS011;32542;52.832;13.816;2023-02-19T09:13:41;8.75;;;6.32;;
17253;SDS011;32542;52.832;13.816;2023-02-19T09:16:44;9.02;;;6.00;;
17253;SDS011;32542;52.832;13.816;2023-02-19T09:19:47;8.38;;;6.15;;
17253;SDS011;32542;52.832;13.816;2023-02-19T09:22:55;7.47;;;6.03;;
17253;SDS011;32542;52.832;13.816;2023-02-19T09:25:58;8.77;;;6.30;;
17253;SDS011;32542;52.832;13.816;2023-02-19T09:29:05;10.50;;;6.55;;
17253;SDS011;32542;52.832;13.816;2023-02-19T09:32:07;10.32;;;5.85;;
17253;SDS011;32542;52.832;13.816;2023-02-19T09:35:11;9.00;;;6.60;;
17253;SDS011;32542;52.832;13.816;2023-02-19T09:38:14;10.25;;;6.30;;
17253;SDS011;32542;52.832;13.816;2023-02-19T09:41:17;9.30;;;6.70;;
17253;SDS011;32542;52.832;13.816;2023-02-19T09:44:28;9.52;;;6.63;;
17253;SDS011;32542;52.832;13.816;2023-02-19T09:47:32;8.35;;;3.97;;
17253;SDS011;32542;52.832;13.816;2023-02-19T09:50:38;8.27;;;3.30;;
17253;SDS011;32542;52.832;13.816;2023-02-19T09:53:46;16.60;;;3.30;;
17253;SDS011;32542;52.832;13.816;2023-02-19T09:56:52;8.02;;;2.00;;
17253;SDS011;32542;52.832;13.816;2023-02-19T10:00:01;8.75;;;3.38;;
17253;SDS011;32542;52.832;13.816;2023-02-19T10:03:11;13.15;;;3.50;;
17253;SDS011;32542;52.832;13.816;2023-02-19T10:06:24;10.48;;;4.40;;
17253;SDS011;32542;52.832;13.816;2023-02-19T10:09:30;15.52;;;6.38;;
17253;SDS011;32542;52.832;13.816;2023-02-19T10:12:33;17.35;;;8.98;;
17253;SDS011;32542;52.832;13.816;2023-02-19T10:15:38;22.30;;;11.98;;
17253;SDS011;32542;52.832;13.816;2023-02-19T10:18:46;32.38;;;17.40;;
17253;SDS011;32542;52.832;13.816;2023-02-19T10:21:49;42.25;;;20.30;;
17253;SDS011;32542;52.832;13.816;2023-02-19T10:24:53;40.90;;;21.20;;
17253;SDS011;32542;52.832;13.816;2023-02-19T10:27:57;52.40;;;25.52;;
17253;SDS011;32542;52.832;13.816;2023-02-19T10:31:03;54.92;;;27.17;;
17253;SDS011;32542;52.832;13.816;2023-02-19T10:34:16;60.28;;;31.73;;
17253;SDS011;32542;52.832;13.816;2023-02-19T10:37:21;61.33;;;32.50;;
17253;SDS011;32542;52.832;13.816;2023-02-19T10:40:24;59.85;;;33.63;;
17253;SDS011;32542;52.832;13.816;2023-02-19T10:43:30;88.45;;;41.53;;
17253;SDS011;32542;52.832;13.816;2023-02-19T10:46:40;80.47;;;43.00;;
17253;SDS011;32542;52.832;13.816;2023-02-19T10:49:45;91.15;;;44.10;;
17253;SDS011;32542;52.832;13.816;2023-02-19T10:52:50;92.28;;;47.38;;
17253;SDS011;32542;52.832;13.816;2023-02-19T10:56:04;106.15;;;51.50;;
17253;SDS011;32542;52.832;13.816;2023-02-19T10:59:20;116.93;;;55.92;;
17253;SDS011;32542;52.832;13.816;2023-02-19T11:02:27;113.50;;;57.13;;
17253;SDS011;32542;52.832;13.816;2023-02-19T11:05:31;124.55;;;60.45;;
17253;SDS011;32542;52.832;13.816;2023-02-19T11:08:43;118.95;;;60.58;;
17253;SDS011;32542;52.832;13.816;2023-02-19T11:11:49;131.75;;;66.18;;
17253;SDS011;32542;52.832;13.816;2023-02-19T11:14:53;126.57;;;68.20;;
17253;SDS011;32542;52.832;13.816;2023-02-19T11:18:06;145.07;;;70.95;;
17253;SDS011;32542;52.832;13.816;2023-02-19T11:21:24;138.57;;;71.43;;
17253;SDS011;32542;52.832;13.816;2023-02-19T11:24:33;147.88;;;75.30;;
17253;SDS011;32542;52.832;13.816;2023-02-19T11:27:52;157.88;;;78.38;;
17253;SDS011;32542;52.832;13.816;2023-02-19T11:30:55;158.20;;;80.47;;
17253;SDS011;32542;52.832;13.816;2023-02-19T11:34:27;175.60;;;85.95;;
17253;SDS011;32542;52.832;13.816;2023-02-19T11:37:31;154.07;;;83.72;;
17253;SDS011;32542;52.832;13.816;2023-02-19T11:40:36;158.35;;;84.78;;
17253;SDS011;32542;52.832;13.816;2023-02-19T11:43:47;174.48;;;92.07;;
17253;SDS011;32542;52.832;13.816;2023-02-19T11:47:06;175.80;;;95.13;;
17253;SDS011;32542;52.832;13.816;2023-02-19T11:50:38;185.98;;;101.45;;
17253;SDS011;32542;52.832;13.816;2023-02-19T11:53:52;187.15;;;104.63;;
17253;SDS011;32542;52.832;13.816;2023-02-19T11:57:06;205.55;;;106.75;;
17253;SDS011;32542;52.832;13.816;2023-02-19T12:00:20;209.48;;;113.35;;
17253;SDS011;32542;52.832;13.816;2023-02-19T12:03:33;221.20;;;115.40;;
17253;SDS011;32542;52.832;13.816;2023-02-19T12:06:53;218.52;;;117.97;;
17253;SDS011;32542;52.832;13.816;2023-02-19T12:10:07;218.55;;;122.70;;
17253;SDS011;32542;52.832;13.816;2023-02-19T12:13:20;230.77;;;123.22;;
17253;SDS011;32542;52.832;13.816;2023-02-19T12:16:35;235.48;;;128.05;;
17253;SDS011;32542;52.832;13.816;2023-02-19T12:19:48;240.38;;;130.57;;
17253;SDS011;32542;52.832;13.816;2023-02-19T12:23:13;231.85;;;126.88;;
17253;SDS011;32542;52.832;13.816;2023-02-19T12:26:33;234.18;;;129.05;;
17253;SDS011;32542;52.832;13.816;2023-02-19T12:29:47;237.50;;;134.30;;
17253;SDS011;32542;52.832;13.816;2023-02-19T12:33:04;242.43;;;135.15;;
17253;SDS011;32542;52.832;13.816;2023-02-19T12:36:19;250.50;;;139.90;;
17253;SDS011;32542;52.832;13.816;2023-02-19T12:39:32;257.63;;;145.05;;
17253;SDS011;32542;52.832;13.816;2023-02-19T12:42:49;254.88;;;146.40;;
17253;SDS011;32542;52.832;13.816;2023-02-19T12:45:59;266.52;;;148.80;;
17253;SDS011;32542;52.832;13.816;2023-02-19T12:49:06;269.73;;;149.63;;
17253;SDS011;32542;52.832;13.816;2023-02-19T12:52:15;273.48;;;153.77;;
17253;SDS011;32542;52.832;13.816;2023-02-19T12:55:23;283.63;;;159.75;;
17253;SDS011;32542;52.832;13.816;2023-02-19T12:58:31;293.92;;;159.88;;
17253;SDS011;32542;52.832;13.816;2023-02-19T13:01:41;275.45;;;153.13;;
17253;SDS011;32542;52.832;13.816;2023-02-19T13:04:50;288.73;;;162.10;;
17253;SDS011;32542;52.832;13.816;2023-02-19T13:08:02;274.75;;;161.80;;
17253;SDS011;32542;52.832;13.816;2023-02-19T13:11:13;292.55;;;169.57;;
17253;SDS011;32542;52.832;13.816;2023-02-19T13:14:20;296.77;;;169.23;;
17253;SDS011;32542;52.832;13.816;2023-02-19T13:17:30;294.45;;;171.45;;
17253;SDS011;32542;52.832;13.816;2023-02-19T13:20:40;293.13;;;175.73;;
17253;SDS011;32542;52.832;13.816;2023-02-19T13:23:44;318.67;;;179.38;;
17253;SDS011;32542;52.832;13.816;2023-02-19T13:27:03;296.65;;;179.05;;
17253;SDS011;32542;52.832;13.816;2023-02-19T13:30:21;300.00;;;180.63;;
17253;SDS011;32542;52.832;13.816;2023-02-19T13:33:38;305.17;;;183.05;;
17253;SDS011;32542;52.832;13.816;2023-02-19T13:36:48;318.05;;;185.57;;
17253;SDS011;32542;52.832;13.816;2023-02-19T13:39:52;309.98;;;186.55;;
17253;SDS011;32542;52.832;13.816;2023-02-19T13:42:58;323.10;;;189.95;;
17253;SDS011;32542;52.832;13.816;2023-02-19T13:46:03;319.77;;;194.70;;
17253;SDS011;32542;52.832;13.816;2023-02-19T13:49:36;327.10;;;197.07;;
17253;SDS011;32542;52.832;13.816;2023-02-19T13:52:42;321.60;;;192.00;;
17253;SDS011;32542;52.832;13.816;2023-02-19T13:55:49;329.17;;;192.60;;
17253;SDS011;32542;52.832;13.816;2023-02-19T13:58:54;337.48;;;201.98;;
17253;SDS011;32542;52.832;13.816;2023-02-19T14:02:08;336.80;;;201.77;;
17253;SDS011;32542;52.832;13.816;2023-02-19T14:09:02;323.95;;;198.70;;
17253;SDS011;32542;52.832;13.816;2023-02-19T14:12:15;344.65;;;205.50;;
17253;SDS011;32542;52.832;13.816;2023-02-19T14:18:45;343.10;;;209.82;;
17253;SDS011;32542;52.832;13.816;2023-02-19T14:21:48;345.65;;;212.73;;
17253;SDS011;32542;52.832;13.816;2023-02-19T14:24:51;328.58;;;201.73;;
17253;SDS011;32542;52.832;13.816;2023-02-19T14:27:57;304.65;;;183.70;;
17253;SDS011;32542;52.832;13.816;2023-02-19T14:31:09;302.42;;;183.70;;
17253;SDS011;32542;52.832;13.816;2023-02-19T14:34:19;311.40;;;194.55;;
17253;SDS011;32542;52.832;13.816;2023-02-19T14:37:26;319.40;;;202.30;;
17253;SDS011;32542;52.832;13.816;2023-02-19T14:40:30;328.98;;;200.20;;
17253;SDS011;32542;52.832;13.816;2023-02-19T14:43:37;288.25;;;173.20;;
17253;SDS011;32542;52.832;13.816;2023-02-19T14:46:44;281.90;;;167.93;;
17253;SDS011;32542;52.832;13.816;2023-02-19T14:49:51;276.83;;;172.65;;
17253;SDS011;32542;52.832;13.816;2023-02-19T14:52:59;281.55;;;173.52;;
17253;SDS011;32542;52.832;13.816;2023-02-19T14:56:06;293.35;;;179.65;;
17253;SDS011;32542;52.832;13.816;2023-02-19T14:59:22;311.27;;;185.05;;
17253;SDS011;32542;52.832;13.816;2023-02-19T15:02:28;298.98;;;183.15;;
17253;SDS011;32542;52.832;13.816;2023-02-19T15:05:34;307.25;;;189.10;;
17253;SDS011;32542;52.832;13.816;2023-02-19T15:08:38;305.38;;;193.25;;
17253;SDS011;32542;52.832;13.816;2023-02-19T15:11:45;309.58;;;192.82;;
17253;SDS011;32542;52.832;13.816;2023-02-19T15:14:49;322.45;;;193.15;;
17253;SDS011;32542;52.832;13.816;2023-02-19T15:17:58;315.65;;;194.88;;
17253;SDS011;32542;52.832;13.816;2023-02-19T15:21:03;333.17;;;200.10;;
17253;SDS011;32542;52.832;13.816;2023-02-19T15:24:24;331.75;;;202.95;;
17253;SDS011;32542;52.832;13.816;2023-02-19T15:27:28;332.13;;;205.60;;
17253;SDS011;32542;52.832;13.816;2023-02-19T15:30:31;324.77;;;205.75;;
17253;SDS011;32542;52.832;13.816;2023-02-19T15:33:35;355.38;;;217.55;;
17253;SDS011;32542;52.832;13.816;2023-02-19T15:36:38;367.98;;;219.88;;
17253;SDS011;32542;52.832;13.816;2023-02-19T15:39:43;348.08;;;217.02;;
17253;SDS011;32542;52.832;13.816;2023-02-19T15:42:48;352.10;;;220.48;;
17253;SDS011;32542;52.832;13.816;2023-02-19T15:45:51;343.80;;;219.23;;
17253;SDS011;32542;52.832;13.816;2023-02-19T15:49:00;353.25;;;221.35;;
17253;SDS011;32542;52.832;13.816;2023-02-19T15:52:07;336.25;;;211.27;;
17253;SDS011;32542;52.832;13.816;2023-02-19T15:55:18;339.40;;;219.32;;
17253;SDS011;32542;52.832;13.816;2023-02-19T15:58:29;347.23;;;220.35;;
17253;SDS011;32542;52.832;13.816;2023-02-19T16:01:36;339.23;;;219.30;;
17253;SDS011;32542;52.832;13.816;2023-02-19T16:04:42;340.90;;;216.90;;
17253;SDS011;32542;52.832;13.816;2023-02-19T16:07:46;335.73;;;218.88;;
17253;SDS011;32542;52.832;13.816;2023-02-19T16:14:30;342.65;;;216.15;;
17253;SDS011;32542;52.832;13.816;2023-02-19T16:17:34;332.35;;;218.23;;
17253;SDS011;32542;52.832;13.816;2023-02-19T16:20:39;348.15;;;218.35;;
17253;SDS011;32542;52.832;13.816;2023-02-19T16:23:42;350.75;;;223.68;;
17253;SDS011;32542;52.832;13.816;2023-02-19T16:26:46;336.77;;;219.90;;
17253;SDS011;32542;52.832;13.816;2023-02-19T16:29:49;347.33;;;220.18;;
17253;SDS011;32542;52.832;13.816;2023-02-19T16:36:37;350.00;;;228.10;;
17253;SDS011;32542;52.832;13.816;2023-02-19T16:39:42;351.45;;;227.52;;
17253;SDS011;32542;52.832;13.816;2023-02-19T16:46:25;350.83;;;229.98;;
17253;SDS011;32542;52.832;13.816;2023-02-19T16:49:28;370.65;;;235.02;;
17253;SDS011;32542;52.832;13.816;2023-02-19T16:52:32;362.13;;;236.30;;
17253;SDS011;32542;52.832;13.816;2023-02-19T16:55:39;362.35;;;234.38;;
17253;SDS011;32542;52.832;13.816;2023-02-19T16:58:42;377.50;;;240.77;;
17253;SDS011;32542;52.832;13.816;2023-02-19T17:01:45;417.25;;;261.10;;
17253;SDS011;32542;52.832;13.816;2023-02-19T17:04:48;417.48;;;260.80;;
17253;SDS011;32542;52.832;13.816;2023-02-19T17:07:53;405.70;;;262.05;;
17253;SDS011;32542;52.832;13.816;2023-02-19T17:10:56;408.98;;;261.48;;
17253;SDS011;32542;52.832;13.816;2023-02-19T17:13:59;419.30;;;265.17;;
17253;SDS011;32542;52.832;13.816;2023-02-19T17:17:02;419.58;;;268.75;;
17253;SDS011;32542;52.832;13.816;2023-02-19T17:20:11;409.83;;;265.45;;
17253;SDS011;32542;52.832;13.816;2023-02-19T17:23:23;427.25;;;264.75;;
17253;SDS011;32542;52.832;13.816;2023-02-19T17:26:26;383.35;;;248.63;;
17253;SDS011;32542;52.832;13.816;2023-02-19T17:29:31;390.08;;;251.85;;
17253;SDS011;32542;52.832;13.816;2023-02-19T17:32:34;387.77;;;248.48;;
17253;SDS011;32542;52.832;13.816;2023-02-19T17:35:37;395.08;;;256.85;;
17253;SDS011;32542;52.832;13.816;2023-02-19T17:38:41;400.55;;;257.08;;
17253;SDS011;32542;52.832;13.816;2023-02-19T17:41:44;401.05;;;254.70;;
17253;SDS011;32542;52.832;13.816;2023-02-19T17:44:47;410.55;;;259.75;;
17253;SDS011;32542;52.832;13.816;2023-02-19T17:47:52;391.77;;;255.57;;
17253;SDS011;32542;52.832;13.816;2023-02-19T17:50:55;401.08;;;257.35;;
17253;SDS011;32542;52.832;13.816;2023-02-19T17:53:59;410.00;;;257.35;;
17253;SDS011;32542;52.832;13.816;2023-02-19T17:57:03;405.30;;;258.73;;
17253;SDS011;32542;52.832;13.816;2023-02-19T18:00:06;416.55;;;269.13;;
17253;SDS011;32542;52.832;13.816;2023-02-19T18:03:13;432.30;;;274.02;;
17253;SDS011;32542;52.832;13.816;2023-02-19T18:06:16;422.25;;;271.60;;
17253;SDS011;32542;52.832;13.816;2023-02-19T18:09:20;375.73;;;250.00;;